NEVŞEHİR ÇAT BALON UÇUŞ SAHASI 38 38 00 N O 34 49 OO E DTC

  • SEKTÖREL METEOROLOJİK DEĞERLENDİRME

  • ÇAT UÇULMAZ

Meteorolojik şartların belirlenen saat aralığında uçuş için uygun olmadığı değerlendirilmiştir.

  • GÜNCELLEME TARİHİ ve SAATİ :

  • 20.06.2024 - 10:50

  • GEÇERLİ TARİH ve SAATLER :

  • 21.06.2024 - 01:45 - 17:10

Bu bölümde yer alan bildirim meteorolojik veriler doğrultusunda ilgili gün ve zaman aralığında planlanan uçuşlara dair bağlayıcı niteliktedir. Kırmızı ve Sarı bayrak durumlarında kalkış uygunluğu verilmeyecektir. Yeşil bayrak durumunda nihai uçma kararı pilot ve işletme sorumluluğundadır
Kırmızı ve/veya sarı bayrağın ilan edildiği durumlarda yalnızca öğretmen pilot ile beraber yapılacak eğitim uçuşları (çift kumanda) için SHGM yetkilileri ile irtibata geçilerek eğitim uçuşları gerçekleştirilebilecektir.

METAR

LTAZ 212020Z 03017KT CAVOK 22/12 Q1013

TAFF

TAF LTAZ 211640Z 2118/2218 03015G25KT CAVOK TEMPO 2118/2121 03025G35KT BECMG 2121/2124 07008KT BECMG 2209/2212 02015G25KT TEMPO 2215/2218 02025G35KT

METAR - TAF bilgileri Aviation Weather Center'dan alınmaktadır.

AIRGRAM

Göreme Airgramı, Meteoroloji Genel Müdürlüğü'nden alınmaktadır.

Meteorolojik veriler sitede bilgilendirme amacıyla yer almaktadır.